Time;durP1;ratioP1;P1;durP2;ratioP2;P2;SDS_P1;SDS_P2;PMS_P1;PMS_P2;Temp;Humidity;BMP_temperature;BMP_pressure;BME280_temperature;BME280_humidity;BME280_pressure;Samples;Min_cycle;Max_cycle;Signal;HPM_P1;HPM_P2
2023/08/14 00:01:08;;;;;;;11.57;11.07;;;;;;;;;;5072027;28;20108;-63
2023/08/14 00:03:34;;;;;;;11.45;10.95;;;;;;;;;;5062103;28;20041;-63
2023/08/14 00:05:59;;;;;;;11.45;10.95;;;;;;;;;;5052409;28;20033;-63
2023/08/14 00:08:24;;;;;;;11.60;11.10;;;;;;;;;;5051550;28;20033;-62
2023/08/14 00:10:50;;;;;;;11.30;10.80;;;;;;;;;;5053026;28;20032;-63
2023/08/14 00:13:18;;;;;;;11.43;10.93;;;;;;;;;;5052082;28;20040;-62
2023/08/14 00:15:44;;;;;;;11.10;10.60;;;;;;;;;;5052140;28;20029;-62
2023/08/14 00:18:09;;;;;;;11.50;11.00;;;;;;;;;;5052814;28;20020;-62
2023/08/14 00:20:34;;;;;;;11.27;10.77;;;;;;;;;;5052197;28;20116;-62
2023/08/14 00:23:00;;;;;;;11.30;10.80;;;;;;;;;;5052605;28;20013;-63
2023/08/14 00:25:25;;;;;;;11.25;10.75;;;;;;;;;;5049675;28;20119;-62
2023/08/14 00:27:50;;;;;;;11.48;10.98;;;;;;;;;;5051159;28;20021;-62
2023/08/14 00:30:15;;;;;;;12.20;11.60;;;;;;;;;;5052662;28;20032;-63
2023/08/14 00:32:41;;;;;;;10.93;10.43;;;;;;;;;;5051511;28;20013;-62
2023/08/14 00:35:07;;;;;;;11.18;10.68;;;;;;;;;;5053157;28;20254;-64
2023/08/14 00:37:39;;;;;;;11.13;10.63;;;;;;;;;;5053728;28;20448;-62
2023/08/14 00:40:06;;;;;;;11.40;10.90;;;;;;;;;;5063244;28;20104;-62
2023/08/14 00:42:33;;;;;;;10.93;10.43;;;;;;;;;;5056235;28;20029;-63
2023/08/14 00:44:58;;;;;;;11.00;10.50;;;;;;;;;;5052553;28;20024;-64
2023/08/14 00:47:24;;;;;;;11.23;10.73;;;;;;;;;;5051844;28;20020;-64
2023/08/14 00:49:49;;;;;;;11.20;10.70;;;;;;;;;;5052590;28;20102;-62
2023/08/14 00:52:14;;;;;;;11.13;10.63;;;;;;;;;;5049872;28;20029;-62
2023/08/14 00:54:40;;;;;;;11.70;11.20;;;;;;;;;;5053017;28;20056;-63
2023/08/14 00:57:05;;;;;;;11.40;10.90;;;;;;;;;;5048574;28;20032;-62
2023/08/14 00:59:32;;;;;;;11.50;11.00;;;;;;;;;;5051384;28;20388;-64
2023/08/14 01:01:57;;;;;;;11.55;11.05;;;;;;;;;;5051903;28;20051;-63
2023/08/14 01:04:23;;;;;;;11.57;11.07;;;;;;;;;;5051747;28;20048;-63
2023/08/14 01:06:48;;;;;;;11.13;10.63;;;;;;;;;;5072554;28;20032;-62
2023/08/14 01:09:13;;;;;;;11.50;11.00;;;;;;;;;;5071765;28;20031;-63
2023/08/14 01:11:43;;;;;;;11.45;10.95;;;;;;;;;;5071877;28;20064;-61
2023/08/14 01:14:15;;;;;;;11.60;11.10;;;;;;;;;;5067632;28;20022;-62
2023/08/14 01:16:43;;;;;;;11.27;10.77;;;;;;;;;;5070874;28;20056;-62
2023/08/14 01:19:15;;;;;;;11.70;11.20;;;;;;;;;;5072282;28;20195;-63
2023/08/14 01:21:49;;;;;;;11.65;11.15;;;;;;;;;;5067529;28;20376;-63
2023/08/14 01:24:18;;;;;;;11.32;10.82;;;;;;;;;;5069603;28;20063;-63
2023/08/14 01:26:44;;;;;;;11.32;10.82;;;;;;;;;;5068410;28;20095;-62
2023/08/14 01:29:10;;;;;;;11.38;10.88;;;;;;;;;;5069782;28;20478;-63
2023/08/14 01:31:35;;;;;;;11.70;11.18;;;;;;;;;;5073507;28;20029;-63
2023/08/14 01:34:00;;;;;;;11.68;11.18;;;;;;;;;;5065455;28;20020;-63
2023/08/14 01:36:25;;;;;;;11.70;11.20;;;;;;;;;;5067365;28;20112;-62
2023/08/14 01:38:51;;;;;;;11.70;11.20;;;;;;;;;;5071609;28;20022;-63
2023/08/14 01:41:22;;;;;;;12.05;11.45;;;;;;;;;;5071210;28;20371;-62
2023/08/14 01:43:49;;;;;;;12.10;11.50;;;;;;;;;;5070957;28;20364;-62
2023/08/14 01:46:15;;;;;;;11.50;11.00;;;;;;;;;;5069071;28;20082;-63
2023/08/14 01:48:40;;;;;;;11.70;11.20;;;;;;;;;;5072402;28;20415;-62
2023/08/14 01:51:06;;;;;;;11.70;11.20;;;;;;;;;;5068446;28;20028;-64
2023/08/14 01:53:35;;;;;;;11.60;11.10;;;;;;;;;;5068256;28;20486;-62
2023/08/14 01:56:01;;;;;;;11.73;11.23;;;;;;;;;;5068606;28;20024;-63
2023/08/14 01:58:26;;;;;;;11.27;10.77;;;;;;;;;;5070628;28;20028;-63
2023/08/14 02:00:52;;;;;;;11.52;11.02;;;;;;;;;;5069154;28;20400;-62
2023/08/14 02:03:17;;;;;;;11.40;10.90;;;;;;;;;;5071513;28;20044;-62
2023/08/14 02:05:43;;;;;;;11.30;10.80;;;;;;;;;;5070270;28;20487;-62
2023/08/14 02:08:08;;;;;;;11.50;11.00;;;;;;;;;;5069131;28;20024;-63
2023/08/14 02:10:33;;;;;;;11.30;10.80;;;;;;;;;;5069135;28;20503;-62
2023/08/14 02:12:59;;;;;;;11.50;11.00;;;;;;;;;;5070995;28;20024;-63
2023/08/14 02:15:24;;;;;;;11.80;11.30;;;;;;;;;;5070623;28;20450;-63
2023/08/14 02:17:50;;;;;;;11.27;10.77;;;;;;;;;;5068580;28;20667;-63
2023/08/14 02:20:15;;;;;;;11.82;11.30;;;;;;;;;;5071238;28;20032;-63
2023/08/14 02:22:40;;;;;;;11.48;10.98;;;;;;;;;;5070412;28;20507;-63
2023/08/14 02:25:06;;;;;;;11.30;10.80;;;;;;;;;;5067663;28;20078;-63
2023/08/14 02:27:31;;;;;;;10.95;10.45;;;;;;;;;;5070488;28;20058;-63
2023/08/14 02:29:56;;;;;;;11.35;10.85;;;;;;;;;;5069507;28;20036;-63
2023/08/14 02:32:22;;;;;;;11.40;10.90;;;;;;;;;;5052089;28;20028;-63
2023/08/14 02:34:48;;;;;;;11.40;10.90;;;;;;;;;;5069790;28;20074;-63
2023/08/14 02:37:14;;;;;;;11.68;11.18;;;;;;;;;;5069549;28;20017;-63
2023/08/14 02:39:40;;;;;;;12.48;11.88;;;;;;;;;;5068739;28;20111;-63
2023/08/14 02:42:05;;;;;;;11.77;11.27;;;;;;;;;;5068840;28;20071;-63
2023/08/14 02:44:31;;;;;;;11.10;10.60;;;;;;;;;;5072407;28;20024;-63
2023/08/14 02:46:56;;;;;;;12.10;11.50;;;;;;;;;;5071220;28;20046;-63
2023/08/14 02:49:21;;;;;;;11.60;11.10;;;;;;;;;;5069826;28;20383;-63
2023/08/14 02:51:47;;;;;;;11.65;11.15;;;;;;;;;;5066014;28;20024;-62
2023/08/14 02:54:12;;;;;;;11.38;10.88;;;;;;;;;;5071692;28;20028;-63
2023/08/14 02:56:37;;;;;;;11.07;10.57;;;;;;;;;;5069844;28;20027;-62
2023/08/14 02:59:03;;;;;;;11.60;11.10;;;;;;;;;;5069987;28;20013;-62
2023/08/14 03:01:28;;;;;;;11.43;10.93;;;;;;;;;;5070226;28;20021;-62
2023/08/14 03:03:53;;;;;;;11.27;10.77;;;;;;;;;;5068083;28;20039;-63
2023/08/14 03:06:18;;;;;;;11.50;11.00;;;;;;;;;;5066270;28;20403;-64
2023/08/14 03:08:44;;;;;;;12.30;11.70;;;;;;;;;;5067805;28;20028;-62
2023/08/14 03:11:09;;;;;;;13.52;12.82;;;;;;;;;;5069962;28;20086;-63
2023/08/14 03:13:35;;;;;;;11.45;10.95;;;;;;;;;;5071047;28;20384;-63
2023/08/14 03:16:00;;;;;;;10.93;10.43;;;;;;;;;;5068458;28;20048;-63
2023/08/14 03:18:25;;;;;;;11.35;10.85;;;;;;;;;;5068113;28;20515;-62
2023/08/14 03:20:51;;;;;;;11.35;10.85;;;;;;;;;;5068190;28;20027;-62
2023/08/14 03:23:16;;;;;;;11.50;11.00;;;;;;;;;;5072714;28;20032;-64
2023/08/14 03:25:41;;;;;;;11.57;11.07;;;;;;;;;;5071001;28;20023;-63
2023/08/14 03:28:06;;;;;;;11.20;10.70;;;;;;;;;;5076531;28;20039;-62
2023/08/14 03:30:33;;;;;;;11.50;11.00;;;;;;;;;;5069525;28;20020;-63
2023/08/14 03:32:58;;;;;;;11.73;11.23;;;;;;;;;;5068073;28;20108;-63
2023/08/14 03:35:23;;;;;;;11.50;11.00;;;;;;;;;;5068480;28;20112;-63
2023/08/14 03:37:49;;;;;;;11.27;10.77;;;;;;;;;;5069619;28;20032;-64
2023/08/14 03:40:14;;;;;;;11.90;11.40;;;;;;;;;;5071769;28;20476;-63
2023/08/14 03:42:40;;;;;;;11.63;11.13;;;;;;;;;;5070708;28;20507;-63
2023/08/14 03:45:05;;;;;;;11.80;11.30;;;;;;;;;;5071514;28;20044;-63
2023/08/14 03:47:31;;;;;;;11.73;11.23;;;;;;;;;;5069675;28;20036;-63
2023/08/14 03:49:56;;;;;;;11.88;11.38;;;;;;;;;;5069715;28;20086;-63
2023/08/14 03:52:21;;;;;;;12.00;11.50;;;;;;;;;;5069034;28;20028;-63
2023/08/14 03:54:47;;;;;;;12.13;11.63;;;;;;;;;;5069491;28;20028;-62
2023/08/14 03:57:12;;;;;;;11.98;11.48;;;;;;;;;;5069512;28;20028;-63
2023/08/14 03:59:37;;;;;;;11.82;11.32;;;;;;;;;;5065465;28;20035;-63
2023/08/14 04:02:02;;;;;;;12.00;11.50;;;;;;;;;;5071777;28;20016;-63
2023/08/14 04:04:28;;;;;;;12.00;11.50;;;;;;;;;;5074251;28;20304;-62
2023/08/14 04:06:53;;;;;;;12.15;11.65;;;;;;;;;;5070836;28;20021;-63
2023/08/14 04:09:18;;;;;;;12.05;11.55;;;;;;;;;;5074260;28;20075;-62
2023/08/14 04:11:44;;;;;;;11.93;11.43;;;;;;;;;;5072874;28;20475;-63
2023/08/14 04:14:10;;;;;;;12.43;11.90;;;;;;;;;;5071622;28;20012;-63
2023/08/14 04:16:41;;;;;;;12.18;11.68;;;;;;;;;;5071543;28;20021;-63
2023/08/14 04:19:14;;;;;;;11.93;11.43;;;;;;;;;;5073446;28;20021;-63
2023/08/14 04:21:39;;;;;;;12.05;11.55;;;;;;;;;;5071157;28;20502;-62
2023/08/14 04:24:05;;;;;;;12.15;11.65;;;;;;;;;;5069988;28;20013;-63
2023/08/14 04:26:31;;;;;;;12.23;11.73;;;;;;;;;;5072878;28;20021;-63
2023/08/14 04:28:56;;;;;;;12.38;11.85;;;;;;;;;;5072907;28;20520;-64
2023/08/14 04:31:21;;;;;;;12.10;11.60;;;;;;;;;;5074132;28;20017;-63
2023/08/14 04:33:46;;;;;;;12.17;11.67;;;;;;;;;;5072406;28;20029;-63
2023/08/14 04:36:12;;;;;;;12.10;11.60;;;;;;;;;;5074146;28;20361;-64
2023/08/14 04:38:37;;;;;;;12.07;11.57;;;;;;;;;;5054272;28;20300;-64
2023/08/14 04:41:02;;;;;;;12.40;11.90;;;;;;;;;;5070894;28;20012;-63
2023/08/14 04:43:31;;;;;;;12.30;11.80;;;;;;;;;;5055312;28;20703;-63
2023/08/14 04:45:56;;;;;;;12.30;11.80;;;;;;;;;;5070350;28;20028;-63
2023/08/14 04:48:22;;;;;;;12.50;11.93;;;;;;;;;;5072602;28;20112;-63
2023/08/14 04:50:47;;;;;;;12.20;11.70;;;;;;;;;;5074252;28;20407;-64
2023/08/14 04:53:12;;;;;;;12.27;11.77;;;;;;;;;;5075176;28;20261;-63
2023/08/14 04:55:38;;;;;;;12.27;11.77;;;;;;;;;;5073365;28;20253;-64
2023/08/14 04:58:03;;;;;;;12.80;12.20;;;;;;;;;;5070767;28;20021;-64
2023/08/14 05:00:28;;;;;;;12.43;11.90;;;;;;;;;;5070310;28;20256;-64
2023/08/14 05:02:53;;;;;;;12.60;12.00;;;;;;;;;;5070336;28;20040;-64
2023/08/14 05:05:19;;;;;;;12.30;11.80;;;;;;;;;;5070289;28;20336;-64
2023/08/14 05:07:45;;;;;;;12.15;11.65;;;;;;;;;;5072168;28;20429;-64
2023/08/14 05:10:10;;;;;;;12.38;11.85;;;;;;;;;;5070636;28;20025;-63
2023/08/14 05:12:35;;;;;;;12.23;11.73;;;;;;;;;;5072063;28;20037;-63
2023/08/14 05:15:01;;;;;;;12.57;11.98;;;;;;;;;;5072560;28;20541;-63
2023/08/14 05:17:26;;;;;;;12.38;11.88;;;;;;;;;;5070698;28;20063;-64
2023/08/14 05:19:52;;;;;;;12.30;11.80;;;;;;;;;;5071028;28;20017;-63
2023/08/14 05:22:19;;;;;;;12.60;12.00;;;;;;;;;;5071480;28;20104;-64
2023/08/14 05:24:44;;;;;;;12.45;11.90;;;;;;;;;;5067468;28;20025;-64
2023/08/14 05:27:10;;;;;;;12.10;11.60;;;;;;;;;;5070267;28;20024;-64
2023/08/14 05:29:35;;;;;;;12.13;11.63;;;;;;;;;;5069057;28;20341;-63
2023/08/14 05:32:00;;;;;;;12.20;11.70;;;;;;;;;;5068670;28;20024;-65
2023/08/14 05:34:25;;;;;;;11.90;11.40;;;;;;;;;;5072682;28;20017;-64
2023/08/14 05:36:51;;;;;;;11.97;11.47;;;;;;;;;;5074710;28;20051;-65
2023/08/14 05:39:18;;;;;;;12.03;11.53;;;;;;;;;;5070226;28;20033;-64
2023/08/14 05:41:44;;;;;;;12.35;11.82;;;;;;;;;;5071166;28;20025;-64
2023/08/14 05:44:09;;;;;;;12.40;11.90;;;;;;;;;;5070788;28;20569;-64
2023/08/14 05:46:34;;;;;;;11.88;11.38;;;;;;;;;;5068695;28;20024;-63
2023/08/14 05:48:59;;;;;;;12.17;11.67;;;;;;;;;;5052540;28;20021;-63
2023/08/14 05:51:25;;;;;;;12.20;11.70;;;;;;;;;;5070523;28;20265;-65
2023/08/14 05:53:50;;;;;;;12.13;11.63;;;;;;;;;;5072169;28;20562;-63
2023/08/14 05:56:15;;;;;;;12.27;11.77;;;;;;;;;;5068332;28;20040;-64
2023/08/14 05:58:41;;;;;;;12.73;12.13;;;;;;;;;;5070717;28;20019;-64
2023/08/14 06:01:06;;;;;;;12.82;12.23;;;;;;;;;;5071034;28;20021;-64
2023/08/14 06:03:31;;;;;;;12.47;11.90;;;;;;;;;;5071370;28;20044;-64
2023/08/14 06:05:57;;;;;;;12.43;11.88;;;;;;;;;;5067603;28;20325;-64
2023/08/14 06:08:22;;;;;;;12.07;11.57;;;;;;;;;;5070846;28;20053;-62
2023/08/14 06:10:47;;;;;;;12.77;12.17;;;;;;;;;;5074227;28;20411;-66
2023/08/14 06:13:13;;;;;;;12.70;12.10;;;;;;;;;;5072951;28;20024;-64
2023/08/14 06:15:38;;;;;;;12.85;12.25;;;;;;;;;;5071023;28;20253;-64
2023/08/14 06:18:03;;;;;;;12.05;11.55;;;;;;;;;;5070387;28;20645;-64
2023/08/14 06:20:29;;;;;;;12.52;11.93;;;;;;;;;;5070209;28;20111;-63
2023/08/14 06:22:54;;;;;;;12.50;11.93;;;;;;;;;;5068330;28;20020;-64
2023/08/14 06:25:20;;;;;;;12.43;11.87;;;;;;;;;;5068670;28;20249;-64
2023/08/14 06:27:46;;;;;;;12.30;11.80;;;;;;;;;;5069708;28;20468;-63
2023/08/14 06:30:11;;;;;;;12.35;11.82;;;;;;;;;;5068226;28;20030;-64
2023/08/14 06:32:37;;;;;;;12.25;11.75;;;;;;;;;;5069994;28;20111;-63
2023/08/14 06:35:03;;;;;;;12.27;11.77;;;;;;;;;;5068490;28;20273;-63
2023/08/14 06:37:28;;;;;;;12.55;11.95;;;;;;;;;;5069365;28;20040;-64
2023/08/14 06:39:53;;;;;;;12.27;11.77;;;;;;;;;;5070900;28;20016;-64
2023/08/14 06:42:19;;;;;;;12.33;11.83;;;;;;;;;;5068678;28;20029;-64
2023/08/14 06:44:44;;;;;;;12.50;11.95;;;;;;;;;;5070818;28;20020;-64
2023/08/14 06:47:09;;;;;;;12.67;12.07;;;;;;;;;;5069884;28;20032;-64
2023/08/14 06:49:35;;;;;;;12.57;11.97;;;;;;;;;;5069080;28;20261;-63
2023/08/14 06:52:00;;;;;;;12.70;12.10;;;;;;;;;;5069963;28;20029;-63
2023/08/14 06:54:26;;;;;;;12.65;12.05;;;;;;;;;;5070212;28;20277;-63
2023/08/14 06:56:51;;;;;;;12.67;12.07;;;;;;;;;;5066706;28;20100;-64
2023/08/14 06:59:16;;;;;;;12.43;11.90;;;;;;;;;;5070828;28;20444;-64
2023/08/14 07:01:42;;;;;;;12.77;12.17;;;;;;;;;;5069533;28;20044;-64
2023/08/14 07:04:07;;;;;;;12.30;11.80;;;;;;;;;;5069479;28;20513;-64
2023/08/14 07:06:33;;;;;;;12.38;11.88;;;;;;;;;;5071850;28;20070;-64
2023/08/14 07:08:58;;;;;;;12.57;11.97;;;;;;;;;;5069965;28;20487;-63
2023/08/14 07:11:23;;;;;;;12.17;11.67;;;;;;;;;;5069265;28;20254;-63
2023/08/14 07:13:48;;;;;;;12.30;11.80;;;;;;;;;;5069061;28;20348;-64
2023/08/14 07:16:14;;;;;;;12.67;12.07;;;;;;;;;;5067809;28;20381;-63
2023/08/14 07:18:39;;;;;;;12.47;11.93;;;;;;;;;;5069741;28;20055;-63
2023/08/14 07:21:04;;;;;;;12.73;12.13;;;;;;;;;;5068876;28;20253;-63
2023/08/14 07:23:31;;;;;;;12.23;11.73;;;;;;;;;;5069072;28;20017;-64
2023/08/14 07:25:58;;;;;;;12.43;11.88;;;;;;;;;;5066177;28;20095;-64
2023/08/14 07:28:23;;;;;;;12.48;11.90;;;;;;;;;;5069662;28;20503;-64
2023/08/14 07:30:48;;;;;;;12.77;12.17;;;;;;;;;;5069951;28;20112;-64
2023/08/14 07:33:15;;;;;;;12.77;12.18;;;;;;;;;;5069167;28;20103;-65
2023/08/14 07:35:41;;;;;;;12.50;11.95;;;;;;;;;;5071429;28;20029;-64
2023/08/14 07:38:06;;;;;;;13.00;12.40;;;;;;;;;;5072722;28;20025;-63
2023/08/14 07:40:32;;;;;;;13.07;12.48;;;;;;;;;;5071757;28;20040;-64
2023/08/14 07:42:57;;;;;;;12.67;12.07;;;;;;;;;;5076215;28;20116;-64
2023/08/14 07:45:22;;;;;;;12.60;12.00;;;;;;;;;;5069841;28;20261;-65
2023/08/14 07:47:48;;;;;;;12.80;12.20;;;;;;;;;;5072915;28;20116;-65
2023/08/14 07:50:13;;;;;;;12.80;12.20;;;;;;;;;;5072396;28;20020;-63
2023/08/14 07:52:39;;;;;;;13.10;12.50;;;;;;;;;;5072107;28;20020;-65
2023/08/14 07:55:04;;;;;;;12.40;11.88;;;;;;;;;;5073550;28;20122;-64
2023/08/14 07:57:30;;;;;;;12.55;11.98;;;;;;;;;;5074070;28;20079;-64
2023/08/14 07:59:55;;;;;;;12.68;12.07;;;;;;;;;;5073127;28;20429;-63
2023/08/14 08:02:21;;;;;;;12.30;11.80;;;;;;;;;;5072505;28;20040;-63
2023/08/14 08:04:46;;;;;;;12.37;11.87;;;;;;;;;;5072042;28;20021;-64
2023/08/14 08:07:12;;;;;;;12.40;11.85;;;;;;;;;;5072262;28;20403;-64
2023/08/14 08:09:37;;;;;;;11.87;11.37;;;;;;;;;;5072257;28;20029;-64
2023/08/14 08:12:02;;;;;;;11.85;11.35;;;;;;;;;;5071480;28;20028;-65
2023/08/14 08:14:28;;;;;;;12.15;11.65;;;;;;;;;;5072579;28;20024;-64
2023/08/14 08:16:53;;;;;;;11.98;11.48;;;;;;;;;;5071947;28;20547;-64
2023/08/14 08:19:19;;;;;;;12.00;11.50;;;;;;;;;;5072713;28;20013;-63
2023/08/14 08:21:44;;;;;;;11.70;11.20;;;;;;;;;;5071284;28;20052;-63
2023/08/14 08:24:09;;;;;;;11.47;10.97;;;;;;;;;;5073410;28;20091;-64
2023/08/14 08:26:35;;;;;;;11.75;11.25;;;;;;;;;;5074587;28;20652;-64
2023/08/14 08:29:01;;;;;;;11.70;11.20;;;;;;;;;;5071755;28;20060;-64
2023/08/14 08:31:26;;;;;;;11.77;11.27;;;;;;;;;;5069802;28;20082;-64
2023/08/14 08:33:52;;;;;;;11.95;11.45;;;;;;;;;;5072220;28;20047;-62
2023/08/14 08:36:17;;;;;;;12.10;11.60;;;;;;;;;;5075643;28;20468;-64
2023/08/14 08:38:46;;;;;;;11.60;11.10;;;;;;;;;;5070591;28;20258;-64
2023/08/14 08:41:21;;;;;;;12.07;11.57;;;;;;;;;;5070192;28;20073;-64
2023/08/14 08:43:52;;;;;;;11.75;11.25;;;;;;;;;;5072175;28;20017;-64
2023/08/14 08:46:21;;;;;;;12.10;11.60;;;;;;;;;;5077632;28;20078;-65
2023/08/14 08:48:50;;;;;;;11.80;11.30;;;;;;;;;;5071679;28;20399;-65
2023/08/14 08:51:16;;;;;;;11.93;11.43;;;;;;;;;;5070944;28;20046;-63
2023/08/14 08:53:42;;;;;;;12.13;11.63;;;;;;;;;;5071670;28;20016;-64
2023/08/14 08:56:08;;;;;;;12.13;11.63;;;;;;;;;;5072674;28;20070;-64
2023/08/14 08:58:33;;;;;;;11.93;11.43;;;;;;;;;;5073651;28;20031;-63
2023/08/14 09:00:59;;;;;;;12.00;11.50;;;;;;;;;;5071771;28;20020;-64
2023/08/14 09:03:24;;;;;;;12.52;11.93;;;;;;;;;;5070204;28;20695;-64
2023/08/14 09:05:51;;;;;;;12.10;11.60;;;;;;;;;;5072259;28;20032;-62
2023/08/14 09:08:16;;;;;;;11.85;11.35;;;;;;;;;;5070431;28;20261;-64
2023/08/14 09:10:42;;;;;;;12.02;11.52;;;;;;;;;;5071558;28;20020;-63
2023/08/14 09:13:07;;;;;;;12.23;11.73;;;;;;;;;;5070448;28;20071;-63
2023/08/14 09:15:32;;;;;;;12.10;11.60;;;;;;;;;;5071558;28;20032;-65
2023/08/14 09:17:58;;;;;;;11.90;11.40;;;;;;;;;;5070891;28;20487;-64
2023/08/14 09:20:23;;;;;;;12.07;11.57;;;;;;;;;;5072374;28;20434;-65
2023/08/14 09:22:49;;;;;;;12.10;11.60;;;;;;;;;;5071686;28;20017;-64
2023/08/14 09:25:15;;;;;;;11.93;11.43;;;;;;;;;;5071403;28;20025;-63
2023/08/14 09:27:43;;;;;;;12.05;11.55;;;;;;;;;;5072737;28;20024;-64
2023/08/14 09:30:11;;;;;;;11.85;11.35;;;;;;;;;;5069207;28;20020;-63
2023/08/14 09:32:37;;;;;;;11.80;11.30;;;;;;;;;;5071911;28;20091;-64
2023/08/14 09:35:03;;;;;;;11.85;11.35;;;;;;;;;;5071216;28;20506;-64
2023/08/14 09:37:29;;;;;;;11.88;11.38;;;;;;;;;;5069475;28;20060;-63
2023/08/14 09:40:06;;;;;;;12.05;11.55;;;;;;;;;;5070972;28;20016;-63
2023/08/14 09:42:32;;;;;;;12.25;11.75;;;;;;;;;;5068968;28;20883;-63
2023/08/14 09:44:57;;;;;;;11.83;11.33;;;;;;;;;;5070073;28;20020;-65
2023/08/14 09:47:22;;;;;;;12.00;11.50;;;;;;;;;;5066677;28;20390;-63
2023/08/14 09:49:48;;;;;;;11.77;11.27;;;;;;;;;;5072704;28;20256;-64
2023/08/14 09:52:13;;;;;;;12.00;11.50;;;;;;;;;;5068844;28;20071;-63
2023/08/14 09:54:38;;;;;;;12.20;11.70;;;;;;;;;;5068553;28;20739;-64
2023/08/14 09:57:05;;;;;;;12.05;11.55;;;;;;;;;;5070421;28;20651;-63
2023/08/14 09:59:30;;;;;;;11.57;11.07;;;;;;;;;;5068702;28;20167;-64
2023/08/14 10:01:57;;;;;;;12.30;11.80;;;;;;;;;;5069736;28;20099;-64
2023/08/14 10:04:23;;;;;;;12.10;11.60;;;;;;;;;;5071724;28;20045;-63
2023/08/14 10:06:50;;;;;;;11.82;11.32;;;;;;;;;;5070621;28;20017;-64
2023/08/14 10:09:16;;;;;;;12.10;11.60;;;;;;;;;;5069637;28;20017;-63
2023/08/14 10:11:42;;;;;;;11.73;11.23;;;;;;;;;;5070346;28;20103;-63
2023/08/14 10:14:10;;;;;;;11.98;11.48;;;;;;;;;;5070490;28;20476;-64
2023/08/14 10:16:40;;;;;;;11.88;11.38;;;;;;;;;;5070638;28;20044;-64
2023/08/14 10:19:09;;;;;;;11.85;11.35;;;;;;;;;;5072530;28;20040;-64
2023/08/14 10:21:35;;;;;;;11.98;11.48;;;;;;;;;;5051728;28;20379;-63
2023/08/14 10:24:02;;;;;;;11.73;11.23;;;;;;;;;;5069413;28;20027;-63
2023/08/14 10:26:28;;;;;;;11.85;11.35;;;;;;;;;;5069975;28;20024;-63
2023/08/14 10:28:55;;;;;;;12.00;11.50;;;;;;;;;;5067003;28;20024;-64
2023/08/14 10:31:21;;;;;;;12.15;11.65;;;;;;;;;;5070638;28;20025;-63
2023/08/14 10:33:46;;;;;;;11.90;11.40;;;;;;;;;;5067466;28;20552;-64
2023/08/14 10:36:19;;;;;;;11.73;11.23;;;;;;;;;;5070091;28;20032;-64
2023/08/14 10:38:46;;;;;;;11.70;11.20;;;;;;;;;;5068360;28;21252;-64
2023/08/14 10:41:13;;;;;;;12.05;11.55;;;;;;;;;;5067178;28;20028;-63
2023/08/14 10:43:39;;;;;;;12.00;11.50;;;;;;;;;;5070042;28;20024;-64
2023/08/14 10:46:13;;;;;;;12.10;11.60;;;;;;;;;;5070218;28;20029;-64
2023/08/14 10:48:38;;;;;;;;;;;;;;;;;;5069338;28;20025;-63
2023/08/14 10:51:06;;;;;;;11.90;11.40;;;;;;;;;;5070600;28;19962;-63
2023/08/14 10:53:31;;;;;;;11.57;11.07;;;;;;;;;;5070238;28;20078;-64
2023/08/14 10:55:57;;;;;;;11.82;11.32;;;;;;;;;;5069519;28;20103;-64
2023/08/14 10:58:29;;;;;;;11.75;11.25;;;;;;;;;;5070474;28;20024;-64
2023/08/14 11:00:54;;;;;;;12.60;12.00;;;;;;;;;;5068864;28;20021;-64
2023/08/14 11:03:20;;;;;;;11.60;11.10;;;;;;;;;;5070177;28;20059;-64
2023/08/14 11:05:45;;;;;;;11.77;11.27;;;;;;;;;;5071438;28;20059;-64
2023/08/14 11:08:11;;;;;;;11.70;11.20;;;;;;;;;;5070207;28;20054;-63
2023/08/14 11:10:37;;;;;;;12.02;11.52;;;;;;;;;;5070323;28;20013;-63
2023/08/14 11:13:03;;;;;;;11.95;11.45;;;;;;;;;;5074644;28;20042;-64
2023/08/14 11:15:32;;;;;;;11.95;11.45;;;;;;;;;;5078329;28;20028;-64
2023/08/14 11:17:58;;;;;;;11.77;11.27;;;;;;;;;;5074139;28;20048;-63
2023/08/14 11:20:27;;;;;;;11.70;11.20;;;;;;;;;;5072961;28;20033;-64
2023/08/14 11:22:53;;;;;;;12.52;11.93;;;;;;;;;;5074206;28;20044;-64
2023/08/14 11:25:19;;;;;;;11.68;11.18;;;;;;;;;;5077138;28;20109;-65
2023/08/14 11:27:49;;;;;;;11.93;11.43;;;;;;;;;;5073838;28;20123;-63
2023/08/14 11:30:14;;;;;;;11.98;11.48;;;;;;;;;;5070517;28;20111;-65
2023/08/14 11:32:39;;;;;;;11.87;11.37;;;;;;;;;;5071597;28;20567;-63
2023/08/14 11:35:06;;;;;;;11.70;11.20;;;;;;;;;;5073143;28;20258;-65
2023/08/14 11:37:31;;;;;;;11.90;11.40;;;;;;;;;;5072388;28;20488;-64
2023/08/14 11:40:00;;;;;;;11.52;11.02;;;;;;;;;;5074907;28;20024;-65
2023/08/14 11:42:25;;;;;;;12.00;11.50;;;;;;;;;;5077971;28;20018;-64
2023/08/14 11:44:51;;;;;;;11.98;11.48;;;;;;;;;;5057914;28;20111;-64
2023/08/14 11:47:17;;;;;;;11.60;11.10;;;;;;;;;;5072003;28;20035;-63
2023/08/14 11:49:42;;;;;;;11.63;11.13;;;;;;;;;;5071187;28;20032;-63
2023/08/14 11:52:07;;;;;;;11.80;11.30;;;;;;;;;;5055443;28;20020;-64
2023/08/14 11:54:33;;;;;;;11.70;11.20;;;;;;;;;;5071040;28;20291;-64
2023/08/14 11:57:05;;;;;;;12.00;11.50;;;;;;;;;;5073164;28;20032;-65
2023/08/14 11:59:30;;;;;;;11.90;11.40;;;;;;;;;;5077322;28;20464;-64
2023/08/14 12:01:56;;;;;;;11.65;11.15;;;;;;;;;;5070556;28;20199;-64
2023/08/14 12:04:21;;;;;;;11.80;11.30;;;;;;;;;;5073255;28;20495;-64
2023/08/14 12:06:47;;;;;;;11.80;11.30;;;;;;;;;;5075616;28;20016;-64
2023/08/14 12:09:12;;;;;;;11.65;11.15;;;;;;;;;;5073499;28;20488;-64
2023/08/14 12:11:38;;;;;;;11.90;11.40;;;;;;;;;;5071757;28;20456;-64
2023/08/14 12:14:07;;;;;;;11.73;11.23;;;;;;;;;;5072918;28;20265;-64
2023/08/14 12:16:33;;;;;;;11.63;11.13;;;;;;;;;;5071897;28;20032;-64
2023/08/14 12:18:58;;;;;;;11.80;11.30;;;;;;;;;;5071673;28;20460;-65
2023/08/14 12:21:27;;;;;;;12.03;11.53;;;;;;;;;;5073660;28;20103;-64
2023/08/14 12:23:55;;;;;;;11.93;11.43;;;;;;;;;;5071503;28;20254;-65
2023/08/14 12:26:21;;;;;;;12.10;11.60;;;;;;;;;;5072743;28;20021;-64
2023/08/14 12:28:46;;;;;;;11.70;11.20;;;;;;;;;;5072111;28;20503;-64
2023/08/14 12:31:13;;;;;;;11.60;11.10;;;;;;;;;;5072673;28;20043;-64
2023/08/14 12:33:42;;;;;;;11.60;11.10;;;;;;;;;;5071824;28;20023;-64
2023/08/14 12:36:08;;;;;;;11.65;11.15;;;;;;;;;;5071853;28;20028;-64
2023/08/14 12:38:33;;;;;;;12.10;11.60;;;;;;;;;;5072420;28;20028;-63
2023/08/14 12:40:59;;;;;;;11.85;11.35;;;;;;;;;;5070739;28;20020;-64
2023/08/14 12:43:24;;;;;;;11.88;11.38;;;;;;;;;;5072801;28;20100;-64
2023/08/14 12:45:49;;;;;;;11.83;11.33;;;;;;;;;;5071892;28;20475;-64
2023/08/14 12:48:15;;;;;;;11.63;11.13;;;;;;;;;;5071756;28;20308;-64
2023/08/14 12:50:40;;;;;;;11.70;11.20;;;;;;;;;;5074174;28;20673;-64
2023/08/14 12:53:06;;;;;;;11.90;11.40;;;;;;;;;;5070487;28;20250;-64
2023/08/14 12:55:32;;;;;;;11.93;11.43;;;;;;;;;;5072121;28;20732;-63
2023/08/14 12:57:57;;;;;;;11.97;11.47;;;;;;;;;;5072731;28;20024;-64
2023/08/14 13:00:22;;;;;;;11.97;11.47;;;;;;;;;;5072661;28;20324;-63
2023/08/14 13:02:48;;;;;;;11.43;10.93;;;;;;;;;;5071174;28;20273;-64
2023/08/14 13:05:13;;;;;;;11.85;11.35;;;;;;;;;;5072450;28;20268;-63
2023/08/14 13:07:38;;;;;;;11.85;11.35;;;;;;;;;;5071804;28;20107;-62
2023/08/14 13:10:06;;;;;;;11.80;11.30;;;;;;;;;;5070662;28;20091;-64
2023/08/14 13:12:31;;;;;;;11.70;11.20;;;;;;;;;;5071431;28;20287;-64
2023/08/14 13:14:56;;;;;;;11.88;11.38;;;;;;;;;;5068852;28;20370;-63
2023/08/14 13:17:22;;;;;;;11.80;11.30;;;;;;;;;;5071155;28;20016;-65
2023/08/14 13:19:47;;;;;;;11.57;11.07;;;;;;;;;;5071664;28;20287;-64
2023/08/14 13:22:12;;;;;;;11.47;10.97;;;;;;;;;;5071686;28;20566;-64
2023/08/14 13:24:38;;;;;;;11.90;11.40;;;;;;;;;;5070892;28;20257;-63
2023/08/14 13:27:03;;;;;;;12.00;11.50;;;;;;;;;;5071052;28;20032;-64
2023/08/14 13:29:29;;;;;;;11.90;11.40;;;;;;;;;;5070444;28;20059;-64
2023/08/14 13:31:54;;;;;;;11.70;11.20;;;;;;;;;;5068425;28;20119;-64
2023/08/14 13:34:19;;;;;;;11.63;11.13;;;;;;;;;;5072401;28;20260;-65
2023/08/14 13:36:45;;;;;;;11.67;11.17;;;;;;;;;;5069909;28;20338;-64
2023/08/14 13:39:10;;;;;;;11.68;11.18;;;;;;;;;;5067107;28;20086;-65
2023/08/14 13:41:35;;;;;;;11.68;11.18;;;;;;;;;;5071083;28;20032;-64
2023/08/14 13:44:01;;;;;;;11.90;11.40;;;;;;;;;;5069744;28;20031;-64
2023/08/14 13:46:26;;;;;;;11.27;10.77;;;;;;;;;;5072607;28;20617;-63
2023/08/14 13:48:51;;;;;;;11.40;10.90;;;;;;;;;;5071035;28;20492;-65
2023/08/14 13:51:17;;;;;;;11.57;11.07;;;;;;;;;;5068138;28;20020;-64
2023/08/14 13:53:42;;;;;;;11.48;10.98;;;;;;;;;;5071157;28;20028;-65
2023/08/14 13:56:07;;;;;;;11.35;10.85;;;;;;;;;;5070605;28;20024;-63
2023/08/14 13:58:32;;;;;;;11.37;10.87;;;;;;;;;;5068704;28;20028;-63
2023/08/14 14:00:58;;;;;;;11.38;10.88;;;;;;;;;;5069803;28;20771;-63
2023/08/14 14:03:23;;;;;;;11.68;11.18;;;;;;;;;;5072157;28;20094;-64
2023/08/14 14:05:48;;;;;;;11.50;11.00;;;;;;;;;;5056541;28;20403;-64
2023/08/14 14:08:14;;;;;;;11.57;11.07;;;;;;;;;;5069212;28;20249;-64
2023/08/14 14:10:39;;;;;;;11.70;11.20;;;;;;;;;;5070876;28;20254;-64